createdAt,value
2023-02-14T00:00:23.148Z,92.31
2023-02-14T00:01:23.129Z,92.99
2023-02-14T00:02:23.165Z,93.30
2023-02-14T00:03:23.105Z,92.88
2023-02-14T00:04:23.153Z,92.68
2023-02-14T00:05:23.087Z,92.37
2023-02-14T00:06:23.089Z,92.47
2023-02-14T00:07:23.069Z,92.51
2023-02-14T00:08:23.061Z,92.37
2023-02-14T00:09:23.042Z,92.31
2023-02-14T00:10:23.023Z,92.37
2023-02-14T00:11:23.029Z,92.27
2023-02-14T00:12:23.004Z,92.57
2023-02-14T00:13:22.999Z,92.37
2023-02-14T00:14:22.999Z,92.16
2023-02-14T00:15:22.984Z,92.27
2023-02-14T00:16:23.022Z,92.57
2023-02-14T00:17:22.959Z,92.27
2023-02-14T00:18:22.937Z,92.68
2023-02-14T00:19:22.947Z,92.78
2023-02-14T00:20:22.951Z,92.57
2023-02-14T00:21:22.916Z,92.37
2023-02-14T00:22:22.915Z,92.37
2023-02-14T00:23:22.900Z,92.31
2023-02-14T00:24:22.875Z,92.61
2023-02-14T00:25:22.881Z,92.78
2023-02-14T00:26:22.863Z,92.68
2023-02-14T00:27:22.848Z,92.68
2023-02-14T00:28:22.841Z,92.16
2023-02-14T00:29:22.832Z,92.47
2023-02-14T00:30:22.884Z,92.27
2023-02-14T00:31:22.948Z,92.10
2023-02-14T00:32:22.805Z,92.16
2023-02-14T00:33:22.789Z,92.10
2023-02-14T00:34:22.765Z,92.27
2023-02-14T00:35:22.771Z,92.51
2023-02-14T00:36:22.754Z,92.47
2023-02-14T00:37:43.770Z,92.68
2023-02-14T00:38:22.725Z,92.57
2023-02-14T00:39:22.733Z,92.37
2023-02-14T00:40:22.712Z,92.78
2023-02-14T00:41:22.691Z,92.51
2023-02-14T00:42:22.691Z,92.21
2023-02-14T00:43:22.688Z,92.78
2023-02-14T00:44:22.673Z,92.51
2023-02-14T00:45:22.666Z,92.78
2023-02-14T00:46:22.658Z,93.13
2023-02-14T00:47:22.637Z,93.75
2023-02-14T00:48:22.618Z,93.85
2023-02-14T00:49:22.617Z,93.75
2023-02-14T00:50:22.596Z,94.27
2023-02-14T00:51:22.599Z,94.17
2023-02-14T00:52:22.593Z,94.06
2023-02-14T00:53:22.594Z,94.37
2023-02-14T00:54:22.557Z,93.54
2023-02-14T00:55:22.541Z,93.65
2023-02-14T00:56:22.533Z,93.96
2023-02-14T00:57:22.522Z,93.75
2023-02-14T00:58:22.537Z,94.17
2023-02-14T00:59:22.517Z,93.96
2023-02-14T01:00:22.504Z,93.96
2023-02-14T01:01:22.581Z,93.85
2023-02-14T01:02:22.497Z,93.75
2023-02-14T01:03:22.477Z,93.24
2023-02-14T01:04:22.462Z,93.54
2023-02-14T01:05:22.443Z,93.13
2023-02-14T01:06:22.446Z,92.82
2023-02-14T01:07:22.416Z,92.61
2023-02-14T01:08:22.411Z,92.31
2023-02-14T01:09:22.426Z,92.61
2023-02-14T01:10:22.381Z,92.51
2023-02-14T01:11:22.374Z,92.51
2023-02-14T01:12:22.388Z,92.61
2023-02-14T01:13:22.354Z,92.72
2023-02-14T01:14:22.345Z,92.31
2023-02-14T01:15:22.338Z,92.21
2023-02-14T01:16:22.389Z,92.51
2023-02-14T01:17:22.308Z,92.41
2023-02-14T01:18:22.294Z,92.93
2023-02-14T01:19:22.317Z,92.72
2023-02-14T01:20:22.282Z,92.72
2023-02-14T01:21:22.275Z,93.03
2023-02-14T01:22:22.271Z,92.82
2023-02-14T01:23:22.265Z,92.72
2023-02-14T01:24:22.235Z,93.03
2023-02-14T01:25:22.248Z,92.72
2023-02-14T01:26:22.212Z,92.93
2023-02-14T01:27:22.223Z,93.18
2023-02-14T01:28:22.188Z,93.28
2023-02-14T01:29:22.181Z,93.24
2023-02-14T01:30:22.255Z,93.90
2023-02-14T01:31:22.320Z,93.79
2023-02-14T01:32:22.295Z,94.10
2023-02-14T01:33:22.148Z,94.21
2023-02-14T01:34:22.134Z,94.21
2023-02-14T01:35:22.120Z,94.31
2023-02-14T01:36:22.131Z,95.24
2023-02-14T01:37:22.096Z,95.03
2023-02-14T01:38:22.103Z,95.03
2023-02-14T01:39:22.103Z,95.65
2023-02-14T01:40:22.077Z,95.96
2023-02-14T01:41:22.075Z,95.45
2023-02-14T01:42:22.045Z,95.03
2023-02-14T01:43:22.033Z,94.93
2023-02-14T01:44:22.032Z,95.34
2023-02-14T01:45:22.026Z,94.00
2023-02-14T01:46:22.006Z,94.00
2023-02-14T01:47:22.005Z,94.21
2023-02-14T01:48:21.998Z,93.90
2023-02-14T01:49:22.030Z,94.10
2023-02-14T01:50:21.970Z,93.90
2023-02-14T01:51:21.985Z,93.49
2023-02-14T01:52:21.973Z,93.18
2023-02-14T01:53:21.950Z,93.49
2023-02-14T01:54:21.921Z,93.90
2023-02-14T01:55:21.921Z,94.21
2023-02-14T01:56:21.906Z,94.10
2023-02-14T01:57:21.911Z,94.00
2023-02-14T01:58:21.886Z,93.90
2023-02-14T01:59:21.882Z,94.21
2023-02-14T02:00:21.887Z,94.52
2023-02-14T02:01:21.964Z,94.10
2023-02-14T02:02:21.875Z,94.00
2023-02-14T02:03:21.846Z,94.31
2023-02-14T02:04:21.829Z,93.90
2023-02-14T02:05:21.804Z,93.79
2023-02-14T02:06:21.798Z,94.21
2023-02-14T02:07:21.786Z,94.77
2023-02-14T02:08:21.780Z,95.14
2023-02-14T02:09:21.769Z,94.72
2023-02-14T02:10:21.757Z,94.87
2023-02-14T02:11:21.760Z,94.87
2023-02-14T02:12:21.727Z,94.87
2023-02-14T02:13:21.741Z,95.03
2023-02-14T02:14:21.710Z,95.18
2023-02-14T02:15:21.698Z,94.72
2023-02-14T02:16:21.731Z,94.62
2023-02-14T02:17:21.697Z,94.31
2023-02-14T02:18:21.685Z,94.00
2023-02-14T02:19:21.678Z,94.21
2023-02-14T02:20:21.648Z,94.42
2023-02-14T02:21:21.656Z,94.10
2023-02-14T02:22:30.354Z,94.62
2023-02-14T02:23:29.154Z,94.62
2023-02-14T02:24:30.409Z,95.03
2023-02-14T02:25:29.126Z,94.82
2023-02-14T02:26:21.594Z,94.82
2023-02-14T02:27:21.576Z,95.03
2023-02-14T02:28:21.576Z,95.90
2023-02-14T02:29:21.576Z,95.59
2023-02-14T02:30:21.560Z,95.59
2023-02-14T02:31:21.726Z,95.49
2023-02-14T02:32:21.518Z,96.11
2023-02-14T02:33:21.515Z,96.31
2023-02-14T02:34:21.493Z,96.73
2023-02-14T02:35:21.496Z,96.42
2023-02-14T02:36:21.490Z,95.70
2023-02-14T02:37:21.462Z,96.31
2023-02-14T02:38:21.469Z,96.58
2023-02-14T02:39:21.447Z,96.31
2023-02-14T02:40:21.437Z,96.42
2023-02-14T02:41:21.424Z,96.11
2023-02-14T02:42:21.421Z,96.27
2023-02-14T02:43:21.428Z,96.11
2023-02-14T02:44:21.404Z,96.31
2023-02-14T02:45:21.397Z,96.42
2023-02-14T02:46:21.391Z,96.01
2023-02-14T02:47:21.363Z,95.49
2023-02-14T02:48:21.352Z,95.39
2023-02-14T02:49:21.367Z,94.93
2023-02-14T02:50:21.331Z,95.24
2023-02-14T02:51:21.320Z,94.35
2023-02-14T02:52:21.305Z,94.46
2023-02-14T02:53:21.302Z,95.39
2023-02-14T02:54:21.310Z,94.82
2023-02-14T02:55:21.281Z,95.65
2023-02-14T02:56:21.260Z,95.49
2023-02-14T02:57:21.250Z,95.59
2023-02-14T02:58:21.245Z,95.55
2023-02-14T02:59:21.240Z,95.90
2023-02-14T03:00:21.244Z,95.80
2023-02-14T03:01:21.337Z,95.80
2023-02-14T03:02:21.205Z,96.11
2023-02-14T03:03:21.188Z,95.59
2023-02-14T03:04:21.187Z,95.49
2023-02-14T03:05:21.189Z,95.70
2023-02-14T03:06:21.153Z,95.07
2023-02-14T03:07:21.151Z,94.87
2023-02-14T03:08:21.139Z,95.28
2023-02-14T03:09:21.149Z,95.18
2023-02-14T03:10:21.113Z,95.39
2023-02-14T03:11:21.118Z,95.14
2023-02-14T03:12:21.101Z,94.87
2023-02-14T03:13:21.094Z,94.67
2023-02-14T03:14:21.078Z,94.56
2023-02-14T03:15:21.074Z,94.25
2023-02-14T03:16:21.062Z,94.56
2023-02-14T03:17:21.075Z,94.52
2023-02-14T03:18:21.047Z,95.18
2023-02-14T03:19:21.028Z,95.28
2023-02-14T03:20:21.023Z,94.82
2023-02-14T03:21:21.027Z,95.80
2023-02-14T03:22:21.002Z,95.70
2023-02-14T03:23:20.980Z,95.39
2023-02-14T03:24:20.970Z,94.56
2023-02-14T03:25:20.961Z,94.67
2023-02-14T03:26:20.960Z,95.18
2023-02-14T03:27:20.944Z,95.07
2023-02-14T03:28:20.935Z,94.97
2023-02-14T03:29:20.918Z,94.77
2023-02-14T03:30:20.941Z,95.18
2023-02-14T03:31:21.092Z,95.18
2023-02-14T03:32:20.981Z,94.97
2023-02-14T03:33:20.909Z,95.90
2023-02-14T03:34:20.872Z,95.90
2023-02-14T03:35:20.866Z,95.49
2023-02-14T03:36:20.846Z,95.80
2023-02-14T03:37:20.833Z,95.59
2023-02-14T03:38:20.840Z,95.59
2023-02-14T03:39:20.826Z,95.59
2023-02-14T03:40:20.804Z,95.70
2023-02-14T03:41:20.785Z,95.28
2023-02-14T03:42:20.799Z,94.93
2023-02-14T03:43:20.774Z,94.46
2023-02-14T03:44:20.767Z,94.25
2023-02-14T03:45:20.778Z,93.69
2023-02-14T03:46:20.877Z,93.94
2023-02-14T03:47:20.743Z,93.49
2023-02-14T03:48:20.735Z,93.07
2023-02-14T03:49:20.724Z,93.12
2023-02-14T03:50:20.723Z,93.94
2023-02-14T03:51:20.704Z,93.94
2023-02-14T03:52:20.690Z,93.90
2023-02-14T03:53:20.680Z,94.04
2023-02-14T03:54:20.662Z,94.15
2023-02-14T03:55:20.640Z,94.15
2023-02-14T03:56:20.624Z,94.04
2023-02-14T03:57:20.634Z,94.87
2023-02-14T03:58:20.615Z,95.07
2023-02-14T03:59:20.608Z,94.97
2023-02-14T04:00:20.602Z,95.28
2023-02-14T04:01:20.673Z,95.80
2023-02-14T04:02:20.577Z,95.49
2023-02-14T04:03:20.610Z,95.80
2023-02-14T04:04:20.539Z,95.84
2023-02-14T04:05:20.561Z,95.70
2023-02-14T04:06:20.531Z,95.53
2023-02-14T04:07:20.511Z,95.12
2023-02-14T04:08:20.508Z,95.49
2023-02-14T04:09:20.527Z,95.70
2023-02-14T04:10:20.482Z,95.64
2023-02-14T04:11:20.483Z,95.64
2023-02-14T04:12:32.227Z,95.95
2023-02-14T04:13:21.454Z,95.74
2023-02-14T04:14:20.442Z,96.26
2023-02-14T04:15:20.446Z,96.56
2023-02-14T04:16:20.541Z,96.47
2023-02-14T04:17:20.401Z,96.47
2023-02-14T04:18:20.396Z,95.95
2023-02-14T04:19:20.386Z,95.74
2023-02-14T04:20:20.372Z,95.43
2023-02-14T04:21:20.424Z,96.31
2023-02-14T04:22:20.362Z,96.26
2023-02-14T04:23:20.341Z,95.74
2023-02-14T04:24:20.344Z,95.74
2023-02-14T04:25:20.337Z,96.05
2023-02-14T04:26:20.303Z,96.47
2023-02-14T04:27:20.318Z,96.56
2023-02-14T04:28:20.284Z,96.05
2023-02-14T04:29:20.276Z,95.84
2023-02-14T04:30:20.303Z,95.49
2023-02-14T04:31:20.372Z,95.02
2023-02-14T04:32:29.007Z,95.53
2023-02-14T04:33:27.766Z,95.95
2023-02-14T04:34:27.751Z,96.26
2023-02-14T04:35:27.749Z,96.47
2023-02-14T04:36:20.199Z,96.05
2023-02-14T04:37:20.247Z,95.64
2023-02-14T04:38:20.191Z,95.74
2023-02-14T04:39:20.170Z,95.43
2023-02-14T04:40:20.154Z,95.43
2023-02-14T04:41:20.153Z,95.84
2023-02-14T04:42:20.144Z,95.64
2023-02-14T04:43:20.146Z,95.74
2023-02-14T04:44:20.126Z,95.43
2023-02-14T04:45:20.110Z,95.53
2023-02-14T04:46:20.143Z,95.74
2023-02-14T04:47:20.088Z,96.15
2023-02-14T04:48:20.080Z,96.26
2023-02-14T04:49:20.074Z,96.26
2023-02-14T04:50:20.057Z,96.36
2023-02-14T04:51:20.052Z,95.74
2023-02-14T04:52:20.039Z,95.43
2023-02-14T04:53:20.040Z,95.02
2023-02-14T04:54:20.031Z,95.64
2023-02-14T04:55:19.996Z,95.74
2023-02-14T04:56:19.991Z,96.15
2023-02-14T04:57:19.984Z,96.05
2023-02-14T04:58:19.982Z,96.15
2023-02-14T04:59:19.966Z,95.84
2023-02-14T05:00:19.951Z,96.15
2023-02-14T05:01:19.970Z,96.15
2023-02-14T05:02:19.967Z,95.84
2023-02-14T05:03:19.919Z,95.84
2023-02-14T05:04:19.914Z,95.84
2023-02-14T05:05:19.952Z,95.59
2023-02-14T05:06:19.891Z,96.36
2023-02-14T05:07:19.870Z,96.56
2023-02-14T05:08:19.859Z,96.47
2023-02-14T05:09:19.874Z,96.05
2023-02-14T05:10:19.848Z,96.05
2023-02-14T05:11:19.845Z,96.56
2023-02-14T05:12:19.826Z,96.47
2023-02-14T05:13:19.812Z,96.20
2023-02-14T05:14:19.814Z,96.15
2023-02-14T05:15:19.787Z,96.05
2023-02-14T05:16:19.824Z,96.41
2023-02-14T05:17:19.773Z,96.67
2023-02-14T05:18:19.757Z,96.36
2023-02-14T05:19:19.758Z,96.47
2023-02-14T05:20:19.735Z,96.56
2023-02-14T05:21:19.736Z,96.56
2023-02-14T05:22:19.719Z,96.47
2023-02-14T05:23:19.703Z,96.77
2023-02-14T05:24:19.692Z,95.84
2023-02-14T05:25:19.692Z,96.77
2023-02-14T05:26:19.705Z,96.36
2023-02-14T05:27:19.656Z,96.67
2023-02-14T05:28:19.651Z,96.77
2023-02-14T05:29:19.643Z,96.56
2023-02-14T05:30:19.809Z,96.88
2023-02-14T05:31:19.733Z,96.36
2023-02-14T05:32:19.618Z,96.67
2023-02-14T05:33:19.606Z,96.56
2023-02-14T05:34:21.307Z,96.67
2023-02-14T05:35:19.579Z,96.77
2023-02-14T05:36:19.584Z,96.56
2023-02-14T05:37:19.548Z,96.67
2023-02-14T05:38:19.559Z,96.56
2023-02-14T05:39:19.537Z,96.67
2023-02-14T05:40:19.524Z,96.56
2023-02-14T05:41:19.538Z,96.67
2023-02-14T05:42:19.504Z,96.67
2023-02-14T05:43:19.505Z,96.77
2023-02-14T05:44:19.479Z,97.08
2023-02-14T05:45:19.478Z,96.41
2023-02-14T05:46:19.454Z,96.72
2023-02-14T05:47:19.452Z,96.82
2023-02-14T05:48:19.455Z,96.82
2023-02-14T05:49:19.434Z,96.15
2023-02-14T05:50:19.425Z,96.36
2023-02-14T05:51:19.401Z,96.51
2023-02-14T05:52:19.389Z,96.15
2023-02-14T05:53:19.396Z,96.26
2023-02-14T05:54:19.385Z,95.57
2023-02-14T05:55:19.368Z,95.64
2023-02-14T05:56:19.355Z,96.41
2023-02-14T05:57:19.380Z,96.05
2023-02-14T05:58:19.342Z,96.67
2023-02-14T05:59:19.324Z,96.77
2023-02-14T06:00:19.310Z,96.88
2023-02-14T06:01:19.302Z,96.47
2023-02-14T06:02:19.337Z,96.88
2023-02-14T06:03:19.278Z,95.95
2023-02-14T06:04:19.366Z,96.05
2023-02-14T06:05:19.270Z,96.36
2023-02-14T06:06:19.246Z,96.47
2023-02-14T06:07:19.234Z,96.67
2023-02-14T06:08:19.251Z,96.36
2023-02-14T06:09:19.231Z,96.56
2023-02-14T06:10:19.229Z,96.67
2023-02-14T06:11:19.203Z,96.67
2023-02-14T06:12:19.184Z,96.77
2023-02-14T06:13:19.212Z,96.77
2023-02-14T06:14:19.168Z,96.88
2023-02-14T06:15:19.165Z,96.36
2023-02-14T06:16:19.215Z,96.26
2023-02-14T06:17:19.132Z,96.15
2023-02-14T06:18:19.119Z,95.53
2023-02-14T06:19:19.131Z,95.43
2023-02-14T06:20:19.130Z,95.53
2023-02-14T06:21:19.114Z,95.84
2023-02-14T06:22:19.083Z,95.43
2023-02-14T06:23:19.093Z,96.26
2023-02-14T06:24:19.070Z,95.84
2023-02-14T06:25:19.058Z,95.95
2023-02-14T06:26:19.051Z,95.74
2023-02-14T06:27:19.034Z,95.43
2023-02-14T06:28:19.028Z,95.53
2023-02-14T06:29:19.058Z,95.43
2023-02-14T06:30:19.051Z,95.43
2023-02-14T06:31:19.122Z,95.53
2023-02-14T06:32:19.026Z,95.53
2023-02-14T06:33:18.962Z,95.74
2023-02-14T06:34:18.963Z,95.64
2023-02-14T06:35:18.965Z,95.53
2023-02-14T06:36:18.958Z,95.74
2023-02-14T06:37:18.928Z,95.64
2023-02-14T06:38:18.925Z,95.95
2023-02-14T06:39:18.907Z,96.15
2023-02-14T06:40:18.890Z,96.47
2023-02-14T06:41:18.897Z,95.74
2023-02-14T06:42:18.869Z,96.47
2023-02-14T06:43:18.858Z,96.67
2023-02-14T06:44:18.854Z,96.98
2023-02-14T06:45:18.945Z,96.77
2023-02-14T06:46:18.942Z,96.67
2023-02-14T06:47:18.826Z,96.77
2023-02-14T06:48:18.816Z,96.77
2023-02-14T06:49:18.807Z,96.67
2023-02-14T06:50:18.794Z,96.47
2023-02-14T06:51:18.779Z,96.62
2023-02-14T06:52:18.763Z,96.47
2023-02-14T06:53:18.791Z,96.31
2023-02-14T06:54:18.753Z,96.11
2023-02-14T06:55:18.739Z,95.95
2023-02-14T06:56:18.731Z,96.83
2023-02-14T06:57:18.725Z,96.67
2023-02-14T06:58:18.708Z,96.77
2023-02-14T06:59:18.711Z,96.73
2023-02-14T07:00:18.692Z,96.52
2023-02-14T07:01:18.785Z,96.73
2023-02-14T07:02:18.727Z,96.73
2023-02-14T07:03:18.656Z,96.42
2023-02-14T07:04:18.647Z,96.83
2023-02-14T07:05:18.663Z,96.52
2023-02-14T07:06:18.636Z,96.52
2023-02-14T07:07:18.615Z,96.83
2023-02-14T07:08:18.603Z,96.73
2023-02-14T07:09:18.604Z,96.01
2023-02-14T07:10:18.584Z,95.49
2023-02-14T07:11:18.590Z,96.01
2023-02-14T07:12:18.566Z,96.37
2023-02-14T07:13:18.553Z,95.90
2023-02-14T07:14:18.539Z,96.01
2023-02-14T07:15:18.525Z,96.17
2023-02-14T07:16:18.606Z,95.96
2023-02-14T07:17:18.542Z,96.06
2023-02-14T07:18:18.494Z,96.52
2023-02-14T07:19:18.494Z,95.49
2023-02-14T07:20:18.468Z,96.37
2023-02-14T07:21:18.481Z,95.86
2023-02-14T07:22:18.458Z,95.76
2023-02-14T07:23:18.438Z,95.45
2023-02-14T07:24:18.421Z,95.65
2023-02-14T07:25:18.426Z,96.17
2023-02-14T07:26:18.440Z,95.65
2023-02-14T07:27:18.412Z,95.65
2023-02-14T07:28:18.395Z,95.34
2023-02-14T07:29:18.380Z,95.86
2023-02-14T07:30:18.379Z,94.82
2023-02-14T07:31:18.510Z,95.76
2023-02-14T07:32:18.511Z,95.45
2023-02-14T07:33:18.353Z,95.14
2023-02-14T07:34:18.319Z,94.93
2023-02-14T07:35:18.320Z,94.93
2023-02-14T07:36:18.317Z,94.78
2023-02-14T07:37:18.286Z,95.09
2023-02-14T07:38:18.283Z,94.57
2023-02-14T07:39:18.289Z,94.27
2023-02-14T07:40:18.287Z,94.68
2023-02-14T07:41:18.261Z,94.68
2023-02-14T07:42:18.248Z,95.05
2023-02-14T07:43:20.169Z,95.25
2023-02-14T07:44:18.231Z,94.27
2023-02-14T07:45:22.290Z,94.27
2023-02-14T07:46:18.275Z,94.43
2023-02-14T07:47:18.214Z,95.05
2023-02-14T07:48:18.177Z,95.15
2023-02-14T07:49:18.180Z,95.25
2023-02-14T07:50:18.158Z,94.64
2023-02-14T07:51:18.145Z,94.64
2023-02-14T07:52:18.124Z,94.64
2023-02-14T07:53:18.127Z,94.43
2023-02-14T07:54:20.233Z,94.02
2023-02-14T07:55:18.101Z,94.32
2023-02-14T07:56:18.082Z,94.64
2023-02-14T07:57:18.078Z,94.74
2023-02-14T07:58:18.065Z,94.23
2023-02-14T07:59:18.070Z,94.08
2023-02-14T08:00:18.046Z,94.08
2023-02-14T08:01:18.103Z,94.32
2023-02-14T08:02:18.066Z,94.28
2023-02-14T08:03:18.049Z,94.18
2023-02-14T08:04:18.005Z,94.18
2023-02-14T08:05:18.090Z,93.87
2023-02-14T08:06:17.995Z,94.08
2023-02-14T08:07:17.969Z,94.28
2023-02-14T08:08:17.966Z,94.28
2023-02-14T08:09:17.972Z,93.66
2023-02-14T08:10:17.943Z,94.59
2023-02-14T08:11:17.931Z,94.28
2023-02-14T08:12:17.922Z,94.18
2023-02-14T08:13:17.908Z,94.38
2023-02-14T08:14:17.894Z,93.87
2023-02-14T08:15:17.894Z,94.03
2023-02-14T08:16:17.944Z,94.24
2023-02-14T08:17:17.860Z,94.34
2023-02-14T08:18:17.857Z,94.03
2023-02-14T08:19:17.841Z,93.93
2023-02-14T08:20:17.828Z,93.52
2023-02-14T08:21:17.851Z,93.93
2023-02-14T08:22:17.824Z,93.52
2023-02-14T08:23:17.820Z,93.52
2023-02-14T08:24:17.787Z,93.16
2023-02-14T08:25:17.797Z,93.41
2023-02-14T08:26:17.772Z,92.96
2023-02-14T08:27:17.742Z,92.96
2023-02-14T08:28:17.742Z,93.27
2023-02-14T08:29:17.726Z,93.27
2023-02-14T08:30:17.722Z,92.29
2023-02-14T08:31:30.048Z,92.18
2023-02-14T08:32:18.777Z,93.21
2023-02-14T08:33:17.685Z,93.52
2023-02-14T08:34:17.682Z,93.16
2023-02-14T08:35:17.663Z,93.27
2023-02-14T08:36:17.676Z,93.06
2023-02-14T08:37:17.659Z,92.65
2023-02-14T08:38:17.636Z,92.86
2023-02-14T08:39:17.631Z,93.16
2023-02-14T08:40:17.602Z,92.71
2023-02-14T08:41:17.589Z,92.96
2023-02-14T08:42:17.596Z,93.23
2023-02-14T08:43:17.581Z,92.71
2023-02-14T08:44:17.566Z,92.71
2023-02-14T08:45:17.565Z,92.50
2023-02-14T08:46:17.624Z,92.30
2023-02-14T08:47:17.542Z,92.40
2023-02-14T08:48:17.539Z,92.30
2023-02-14T08:49:17.522Z,91.58
2023-02-14T08:50:17.521Z,91.68
2023-02-14T08:51:17.495Z,91.58
2023-02-14T08:52:17.519Z,91.27
2023-02-14T08:53:17.524Z,90.66
2023-02-14T08:54:26.037Z,90.96
2023-02-14T08:55:17.454Z,90.51
2023-02-14T08:56:17.442Z,90.86
2023-02-14T08:57:17.433Z,90.41
2023-02-14T08:58:17.427Z,90.61
2023-02-14T08:59:17.440Z,90.72
2023-02-14T09:00:17.402Z,90.30
2023-02-14T09:01:17.491Z,90.20
2023-02-14T09:02:17.413Z,89.64
2023-02-14T09:03:17.365Z,89.17
2023-02-14T09:04:17.429Z,88.14
2023-02-14T09:05:17.349Z,88.56
2023-02-14T09:06:17.763Z,88.82
2023-02-14T09:07:17.338Z,89.23
2023-02-14T09:08:17.352Z,89.13
2023-02-14T09:09:17.379Z,89.23
2023-02-14T09:10:17.313Z,89.13
2023-02-14T09:11:17.276Z,88.31
2023-02-14T09:12:17.339Z,89.13
2023-02-14T09:13:17.267Z,88.92
2023-02-14T09:14:17.342Z,88.14
2023-02-14T09:15:17.326Z,88.76
2023-02-14T09:16:17.342Z,88.96
2023-02-14T09:17:17.251Z,89.07
2023-02-14T09:18:17.254Z,88.56
2023-02-14T09:19:17.221Z,88.66
2023-02-14T09:20:17.210Z,87.94
2023-02-14T09:21:17.240Z,88.04
2023-02-14T09:22:17.181Z,88.66
2023-02-14T09:23:17.155Z,88.24
2023-02-14T09:24:17.147Z,88.56
2023-02-14T09:25:17.176Z,88.82
2023-02-14T09:26:17.119Z,88.10
2023-02-14T09:27:17.130Z,87.38
2023-02-14T09:28:17.104Z,87.69
2023-02-14T09:29:17.084Z,88.31
2023-02-14T09:30:17.194Z,87.90
2023-02-14T09:31:17.165Z,88.37
2023-02-14T09:32:17.218Z,87.45
2023-02-14T09:33:17.044Z,86.93
2023-02-14T09:34:17.120Z,87.13
2023-02-14T09:35:17.042Z,86.35
2023-02-14T09:36:17.029Z,86.00
2023-02-14T09:37:17.007Z,85.60
2023-02-14T09:38:17.011Z,85.74
2023-02-14T09:39:16.980Z,85.80
2023-02-14T09:40:16.984Z,87.04
2023-02-14T09:41:16.992Z,85.74
2023-02-14T09:42:16.966Z,85.02
2023-02-14T09:43:16.951Z,85.74
2023-02-14T09:44:16.928Z,86.05
2023-02-14T09:45:16.942Z,86.15
2023-02-14T09:46:16.988Z,86.15
2023-02-14T09:47:16.892Z,85.33
2023-02-14T09:48:16.900Z,85.53
2023-02-14T09:49:16.980Z,85.02
2023-02-14T09:50:16.867Z,86.05
2023-02-14T09:51:16.859Z,86.52
2023-02-14T09:52:16.865Z,86.32
2023-02-14T09:53:16.829Z,86.00
2023-02-14T09:54:16.820Z,85.60
2023-02-14T09:55:16.822Z,85.90
2023-02-14T09:56:16.807Z,85.49
2023-02-14T09:57:16.813Z,85.80
2023-02-14T09:58:16.793Z,84.98
2023-02-14T09:59:16.788Z,84.16
2023-02-14T10:00:16.762Z,84.40
2023-02-14T10:01:16.871Z,85.02
2023-02-14T10:02:16.848Z,85.12
2023-02-14T10:03:16.724Z,84.71
2023-02-14T10:04:16.724Z,85.22
2023-02-14T10:05:16.706Z,85.02
2023-02-14T10:06:16.688Z,85.33
2023-02-14T10:07:16.690Z,84.91
2023-02-14T10:08:16.664Z,84.61
2023-02-14T10:09:16.659Z,85.08
2023-02-14T10:10:16.651Z,84.98
2023-02-14T10:11:16.631Z,84.88
2023-02-14T10:12:16.647Z,84.88
2023-02-14T10:13:16.639Z,85.49
2023-02-14T10:14:16.633Z,85.28
2023-02-14T10:15:16.599Z,84.98
2023-02-14T10:16:16.607Z,85.28
2023-02-14T10:17:16.574Z,84.98
2023-02-14T10:18:16.585Z,83.95
2023-02-14T10:19:16.565Z,84.05
2023-02-14T10:20:16.555Z,84.47
2023-02-14T10:21:16.544Z,84.16
2023-02-14T10:22:16.547Z,83.29
2023-02-14T10:23:16.501Z,83.27
2023-02-14T10:24:16.515Z,84.36
2023-02-14T10:25:16.514Z,84.47
2023-02-14T10:26:16.472Z,83.44
2023-02-14T10:27:16.491Z,84.16
2023-02-14T10:28:16.969Z,84.26
2023-02-14T10:29:16.465Z,83.13
2023-02-14T10:30:16.520Z,82.41
2023-02-14T10:31:16.585Z,83.33
2023-02-14T10:32:16.435Z,83.13
2023-02-14T10:33:16.427Z,83.44
2023-02-14T10:34:16.405Z,83.40
2023-02-14T10:35:16.378Z,84.12
2023-02-14T10:36:16.373Z,84.22
2023-02-14T10:37:16.370Z,84.12
2023-02-14T10:38:16.360Z,83.50
2023-02-14T10:39:16.344Z,83.50
2023-02-14T10:40:17.533Z,83.26
2023-02-14T10:41:16.319Z,82.89
2023-02-14T10:42:16.299Z,83.05
2023-02-14T10:43:16.334Z,83.09
2023-02-14T10:44:16.282Z,82.47
2023-02-14T10:45:16.274Z,83.40
2023-02-14T10:46:18.094Z,83.36
2023-02-14T10:47:16.250Z,83.81
2023-02-14T10:48:16.242Z,84.32
2023-02-14T10:49:16.231Z,83.50
2023-02-14T10:50:16.229Z,83.50
2023-02-14T10:51:16.230Z,83.61
2023-02-14T10:52:16.205Z,82.78
2023-02-14T10:53:16.194Z,82.47
2023-02-14T10:54:16.187Z,82.71
2023-02-14T10:55:31.530Z,82.82
2023-02-14T10:56:17.164Z,83.85
2023-02-14T10:57:16.136Z,82.96
2023-02-14T10:58:16.166Z,83.58
2023-02-14T10:59:16.147Z,84.16
2023-02-14T11:00:16.118Z,84.05
2023-02-14T11:01:16.173Z,83.85
2023-02-14T11:02:16.097Z,83.44
2023-02-14T11:03:16.138Z,83.33
2023-02-14T11:04:16.078Z,83.70
2023-02-14T11:05:16.076Z,83.03
2023-02-14T11:06:16.083Z,82.89
2023-02-14T11:07:16.033Z,82.89
2023-02-14T11:08:16.046Z,83.40
2023-02-14T11:09:16.019Z,82.68
2023-02-14T11:10:16.004Z,83.19
2023-02-14T11:11:15.993Z,83.70
2023-02-14T11:12:15.995Z,82.89
2023-02-14T11:13:15.986Z,82.47
2023-02-14T11:14:17.338Z,83.03
2023-02-14T11:15:15.969Z,83.19
2023-02-14T11:16:15.997Z,83.70
2023-02-14T11:17:15.920Z,82.57
2023-02-14T11:18:15.922Z,83.09
2023-02-14T11:19:15.904Z,83.50
2023-02-14T11:20:15.903Z,82.99
2023-02-14T11:21:15.889Z,82.47
2023-02-14T11:22:15.881Z,83.50
2023-02-14T11:23:15.859Z,83.91
2023-02-14T11:24:15.843Z,84.01
2023-02-14T11:25:15.836Z,83.50
2023-02-14T11:26:15.841Z,82.89
2023-02-14T11:27:15.822Z,82.78
2023-02-14T11:28:15.817Z,83.50
2023-02-14T11:29:15.795Z,82.47
2023-02-14T11:30:15.820Z,82.89
2023-02-14T11:31:15.911Z,82.64
2023-02-14T11:32:15.769Z,83.19
2023-02-14T11:33:15.751Z,83.19
2023-02-14T11:34:15.753Z,82.78
2023-02-14T11:35:15.751Z,82.43
2023-02-14T11:36:15.719Z,82.57
2023-02-14T11:37:15.709Z,82.89
2023-02-14T11:38:15.701Z,82.41
2023-02-14T11:39:15.689Z,83.13
2023-02-14T11:40:15.670Z,82.62
2023-02-14T11:41:15.702Z,82.51
2023-02-14T11:42:15.657Z,82.92
2023-02-14T11:43:15.686Z,82.82
2023-02-14T11:44:15.698Z,84.05
2023-02-14T11:45:15.625Z,83.33
2023-02-14T11:46:15.669Z,83.44
2023-02-14T11:47:15.651Z,83.75
2023-02-14T11:48:19.674Z,83.33
2023-02-14T11:49:15.582Z,83.23
2023-02-14T11:50:15.578Z,83.85
2023-02-14T11:51:15.588Z,83.44
2023-02-14T11:52:15.554Z,84.32
2023-02-14T11:53:15.542Z,83.85
2023-02-14T11:54:15.549Z,83.19
2023-02-14T11:55:15.516Z,84.32
2023-02-14T11:56:15.523Z,84.12
2023-02-14T11:57:15.501Z,84.63
2023-02-14T11:58:15.484Z,84.16
2023-02-14T11:59:15.486Z,83.81
2023-02-14T12:00:15.492Z,83.85
2023-02-14T12:01:15.480Z,84.26
2023-02-14T12:02:15.464Z,83.40
2023-02-14T12:03:15.526Z,83.64
2023-02-14T12:04:15.418Z,84.36
2023-02-14T12:05:15.411Z,83.44
2023-02-14T12:06:15.412Z,84.67
2023-02-14T12:07:15.408Z,84.32
2023-02-14T12:08:15.386Z,84.67
2023-02-14T12:09:15.372Z,83.54
2023-02-14T12:10:15.369Z,83.44
2023-02-14T12:11:15.390Z,83.85
2023-02-14T12:12:15.335Z,84.63
2023-02-14T12:13:15.329Z,84.53
2023-02-14T12:14:15.311Z,84.22
2023-02-14T12:15:15.328Z,84.12
2023-02-14T12:16:15.293Z,83.91
2023-02-14T12:17:15.294Z,82.37
2023-02-14T12:18:15.268Z,82.78
2023-02-14T12:19:15.287Z,83.29
2023-02-14T12:20:15.253Z,83.03
2023-02-14T12:21:15.254Z,83.40
2023-02-14T12:22:15.236Z,82.47
2023-02-14T12:23:15.226Z,82.92
2023-02-14T12:24:15.224Z,84.16
2023-02-14T12:25:15.193Z,83.54
2023-02-14T12:26:15.204Z,84.67
2023-02-14T12:27:15.190Z,84.47
2023-02-14T12:28:15.189Z,84.26
2023-02-14T12:29:15.184Z,84.56
2023-02-14T12:30:15.220Z,85.25
2023-02-14T12:31:15.264Z,83.91
2023-02-14T12:32:15.139Z,83.44
2023-02-14T12:33:15.113Z,84.42
2023-02-14T12:34:15.111Z,84.32
2023-02-14T12:35:15.108Z,84.88
2023-02-14T12:36:15.103Z,84.77
2023-02-14T12:37:15.068Z,83.91
2023-02-14T12:38:15.061Z,84.42
2023-02-14T12:39:15.052Z,84.32
2023-02-14T12:40:15.038Z,84.53
2023-02-14T12:41:15.017Z,84.22
2023-02-14T12:42:15.028Z,83.91
2023-02-14T12:43:14.999Z,82.99
2023-02-14T12:44:14.987Z,83.33
2023-02-14T12:45:14.989Z,84.56
2023-02-14T12:46:14.983Z,84.36
2023-02-14T12:47:14.959Z,85.08
2023-02-14T12:48:16.578Z,84.67
2023-02-14T12:49:14.942Z,84.05
2023-02-14T12:50:14.939Z,84.77
2023-02-14T12:51:14.940Z,84.22
2023-02-14T12:52:14.913Z,84.77